sensor_id;sensor_type;location;lat;lon;timestamp;P1;durP1;ratioP1;P2;durP2;ratioP2
28022;SDS011;67403;50.104;8.758;2023-04-25T00:00:28;12.82;;;6.85;;
28022;SDS011;67403;50.104;8.758;2023-04-25T00:02:54;11.75;;;6.10;;
28022;SDS011;67403;50.104;8.758;2023-04-25T00:05:22;10.75;;;6.28;;
28022;SDS011;67403;50.104;8.758;2023-04-25T00:07:49;10.85;;;5.53;;
28022;SDS011;67403;50.104;8.758;2023-04-25T00:10:17;11.52;;;5.85;;
28022;SDS011;67403;50.104;8.758;2023-04-25T00:12:46;13.60;;;5.63;;
28022;SDS011;67403;50.104;8.758;2023-04-25T00:15:14;8.80;;;4.57;;
28022;SDS011;67403;50.104;8.758;2023-04-25T00:17:41;10.63;;;6.05;;
28022;SDS011;67403;50.104;8.758;2023-04-25T00:20:08;12.85;;;6.35;;
28022;SDS011;67403;50.104;8.758;2023-04-25T00:22:36;9.93;;;5.28;;
28022;SDS011;67403;50.104;8.758;2023-04-25T00:25:04;8.23;;;4.97;;
28022;SDS011;67403;50.104;8.758;2023-04-25T00:27:32;11.60;;;6.07;;
28022;SDS011;67403;50.104;8.758;2023-04-25T00:29:59;7.85;;;4.45;;
28022;SDS011;67403;50.104;8.758;2023-04-25T00:32:26;8.50;;;4.57;;
28022;SDS011;67403;50.104;8.758;2023-04-25T00:34:53;8.57;;;4.88;;
28022;SDS011;67403;50.104;8.758;2023-04-25T00:37:22;11.13;;;4.73;;
28022;SDS011;67403;50.104;8.758;2023-04-25T00:39:50;11.80;;;5.50;;
28022;SDS011;67403;50.104;8.758;2023-04-25T00:42:18;7.95;;;3.97;;
28022;SDS011;67403;50.104;8.758;2023-04-25T00:44:47;11.98;;;5.40;;
28022;SDS011;67403;50.104;8.758;2023-04-25T00:47:14;10.20;;;5.18;;
28022;SDS011;67403;50.104;8.758;2023-04-25T00:49:41;9.30;;;5.32;;
28022;SDS011;67403;50.104;8.758;2023-04-25T00:52:08;9.82;;;4.60;;
28022;SDS011;67403;50.104;8.758;2023-04-25T00:54:36;12.27;;;5.95;;
28022;SDS011;67403;50.104;8.758;2023-04-25T00:57:03;12.23;;;5.57;;
28022;SDS011;67403;50.104;8.758;2023-04-25T00:59:30;9.68;;;5.40;;
28022;SDS011;67403;50.104;8.758;2023-04-25T01:01:59;9.73;;;4.88;;
28022;SDS011;67403;50.104;8.758;2023-04-25T01:04:26;10.45;;;4.93;;
28022;SDS011;67403;50.104;8.758;2023-04-25T01:06:54;8.73;;;4.78;;
28022;SDS011;67403;50.104;8.758;2023-04-25T01:09:21;10.43;;;4.90;;
28022;SDS011;67403;50.104;8.758;2023-04-25T01:11:49;11.75;;;5.55;;
28022;SDS011;67403;50.104;8.758;2023-04-25T01:14:16;8.35;;;4.93;;
28022;SDS011;67403;50.104;8.758;2023-04-25T01:16:43;9.50;;;5.22;;
28022;SDS011;67403;50.104;8.758;2023-04-25T01:19:11;8.93;;;4.65;;
28022;SDS011;67403;50.104;8.758;2023-04-25T01:21:44;11.73;;;5.35;;
28022;SDS011;67403;50.104;8.758;2023-04-25T01:24:11;10.43;;;5.72;;
28022;SDS011;67403;50.104;8.758;2023-04-25T01:26:39;10.60;;;5.47;;
28022;SDS011;67403;50.104;8.758;2023-04-25T01:29:09;11.65;;;6.20;;
28022;SDS011;67403;50.104;8.758;2023-04-25T01:31:37;11.43;;;5.43;;
28022;SDS011;67403;50.104;8.758;2023-04-25T01:34:04;9.43;;;5.43;;
28022;SDS011;67403;50.104;8.758;2023-04-25T01:36:31;11.57;;;5.65;;
28022;SDS011;67403;50.104;8.758;2023-04-25T01:38:59;11.57;;;5.93;;
28022;SDS011;67403;50.104;8.758;2023-04-25T01:41:27;11.32;;;6.50;;
28022;SDS011;67403;50.104;8.758;2023-04-25T01:43:54;11.50;;;5.38;;
28022;SDS011;67403;50.104;8.758;2023-04-25T01:46:21;13.15;;;5.82;;
28022;SDS011;67403;50.104;8.758;2023-04-25T01:48:48;9.65;;;5.43;;
28022;SDS011;67403;50.104;8.758;2023-04-25T01:51:15;11.52;;;5.68;;
28022;SDS011;67403;50.104;8.758;2023-04-25T01:53:42;10.65;;;5.65;;
28022;SDS011;67403;50.104;8.758;2023-04-25T01:56:11;9.40;;;5.18;;
28022;SDS011;67403;50.104;8.758;2023-04-25T01:58:38;10.02;;;5.78;;
28022;SDS011;67403;50.104;8.758;2023-04-25T02:01:04;7.07;;;4.78;;
28022;SDS011;67403;50.104;8.758;2023-04-25T02:03:31;7.55;;;5.00;;
28022;SDS011;67403;50.104;8.758;2023-04-25T02:05:59;9.88;;;5.05;;
28022;SDS011;67403;50.104;8.758;2023-04-25T02:08:25;9.93;;;5.57;;
28022;SDS011;67403;50.104;8.758;2023-04-25T02:10:52;12.10;;;5.60;;
28022;SDS011;67403;50.104;8.758;2023-04-25T02:13:21;8.02;;;4.65;;
28022;SDS011;67403;50.104;8.758;2023-04-25T02:15:48;8.30;;;4.90;;
28022;SDS011;67403;50.104;8.758;2023-04-25T02:18:14;10.70;;;4.80;;
28022;SDS011;67403;50.104;8.758;2023-04-25T02:20:42;9.55;;;4.90;;
28022;SDS011;67403;50.104;8.758;2023-04-25T02:23:09;12.07;;;5.70;;
28022;SDS011;67403;50.104;8.758;2023-04-25T02:25:36;9.73;;;5.22;;
28022;SDS011;67403;50.104;8.758;2023-04-25T02:28:03;9.98;;;5.35;;
28022;SDS011;67403;50.104;8.758;2023-04-25T02:30:31;12.43;;;5.55;;
28022;SDS011;67403;50.104;8.758;2023-04-25T02:32:58;9.77;;;5.50;;
28022;SDS011;67403;50.104;8.758;2023-04-25T02:35:25;10.00;;;4.93;;
28022;SDS011;67403;50.104;8.758;2023-04-25T02:37:52;9.70;;;5.97;;
28022;SDS011;67403;50.104;8.758;2023-04-25T02:40:19;10.82;;;5.85;;
28022;SDS011;67403;50.104;8.758;2023-04-25T02:42:46;10.02;;;5.25;;
28022;SDS011;67403;50.104;8.758;2023-04-25T02:45:13;9.45;;;5.35;;
28022;SDS011;67403;50.104;8.758;2023-04-25T02:47:41;9.52;;;5.55;;
28022;SDS011;67403;50.104;8.758;2023-04-25T02:50:08;10.85;;;6.32;;
28022;SDS011;67403;50.104;8.758;2023-04-25T02:52:36;12.07;;;5.85;;
28022;SDS011;67403;50.104;8.758;2023-04-25T02:55:03;11.98;;;5.90;;
28022;SDS011;67403;50.104;8.758;2023-04-25T02:57:30;10.80;;;6.22;;
28022;SDS011;67403;50.104;8.758;2023-04-25T02:59:57;12.48;;;6.32;;
28022;SDS011;67403;50.104;8.758;2023-04-25T03:02:24;16.40;;;6.47;;
28022;SDS011;67403;50.104;8.758;2023-04-25T03:04:52;13.25;;;6.28;;
28022;SDS011;67403;50.104;8.758;2023-04-25T03:07:19;14.35;;;6.50;;
28022;SDS011;67403;50.104;8.758;2023-04-25T03:09:46;13.20;;;6.45;;
28022;SDS011;67403;50.104;8.758;2023-04-25T03:12:13;12.07;;;6.22;;
28022;SDS011;67403;50.104;8.758;2023-04-25T03:14:40;11.10;;;6.38;;
28022;SDS011;67403;50.104;8.758;2023-04-25T03:17:07;17.70;;;7.38;;
28022;SDS011;67403;50.104;8.758;2023-04-25T03:19:34;11.60;;;6.32;;
28022;SDS011;67403;50.104;8.758;2023-04-25T03:22:02;13.07;;;7.35;;
28022;SDS011;67403;50.104;8.758;2023-04-25T03:24:29;16.25;;;7.13;;
28022;SDS011;67403;50.104;8.758;2023-04-25T03:26:56;16.63;;;7.18;;
28022;SDS011;67403;50.104;8.758;2023-04-25T03:29:22;18.13;;;8.30;;
28022;SDS011;67403;50.104;8.758;2023-04-25T03:31:51;17.30;;;7.55;;
28022;SDS011;67403;50.104;8.758;2023-04-25T03:34:18;15.77;;;7.63;;
28022;SDS011;67403;50.104;8.758;2023-04-25T03:36:46;13.10;;;7.22;;
28022;SDS011;67403;50.104;8.758;2023-04-25T03:39:15;15.05;;;7.20;;
28022;SDS011;67403;50.104;8.758;2023-04-25T03:41:42;16.52;;;7.68;;
28022;SDS011;67403;50.104;8.758;2023-04-25T03:44:08;15.50;;;7.68;;
28022;SDS011;67403;50.104;8.758;2023-04-25T03:46:35;14.75;;;7.40;;
28022;SDS011;67403;50.104;8.758;2023-04-25T03:49:02;14.25;;;8.23;;
28022;SDS011;67403;50.104;8.758;2023-04-25T03:51:29;14.68;;;7.57;;
28022;SDS011;67403;50.104;8.758;2023-04-25T03:53:56;13.10;;;7.15;;
28022;SDS011;67403;50.104;8.758;2023-04-25T03:56:24;15.60;;;7.45;;
28022;SDS011;67403;50.104;8.758;2023-04-25T03:58:51;17.52;;;7.75;;
28022;SDS011;67403;50.104;8.758;2023-04-25T04:01:18;16.27;;;7.25;;
28022;SDS011;67403;50.104;8.758;2023-04-25T04:03:45;14.07;;;7.28;;
28022;SDS011;67403;50.104;8.758;2023-04-25T04:06:12;16.52;;;7.70;;
28022;SDS011;67403;50.104;8.758;2023-04-25T04:08:40;16.65;;;7.88;;
28022;SDS011;67403;50.104;8.758;2023-04-25T04:11:07;11.35;;;7.28;;
28022;SDS011;67403;50.104;8.758;2023-04-25T04:13:35;14.10;;;7.60;;
28022;SDS011;67403;50.104;8.758;2023-04-25T04:16:02;13.18;;;8.18;;
28022;SDS011;67403;50.104;8.758;2023-04-25T04:18:29;12.77;;;6.82;;
28022;SDS011;67403;50.104;8.758;2023-04-25T04:20:56;13.68;;;6.65;;
28022;SDS011;67403;50.104;8.758;2023-04-25T04:23:23;12.80;;;6.88;;
28022;SDS011;67403;50.104;8.758;2023-04-25T04:25:52;15.55;;;6.80;;
28022;SDS011;67403;50.104;8.758;2023-04-25T04:28:19;16.13;;;7.40;;
28022;SDS011;67403;50.104;8.758;2023-04-25T04:30:48;11.02;;;6.38;;
28022;SDS011;67403;50.104;8.758;2023-04-25T04:33:16;17.10;;;5.78;;
28022;SDS011;67403;50.104;8.758;2023-04-25T04:35:45;14.40;;;6.25;;
28022;SDS011;67403;50.104;8.758;2023-04-25T04:38:13;10.75;;;5.78;;
28022;SDS011;67403;50.104;8.758;2023-04-25T04:40:41;8.32;;;4.75;;
28022;SDS011;67403;50.104;8.758;2023-04-25T04:43:08;14.10;;;5.38;;
28022;SDS011;67403;50.104;8.758;2023-04-25T04:45:36;8.63;;;4.40;;
28022;SDS011;67403;50.104;8.758;2023-04-25T04:48:05;7.88;;;3.95;;
28022;SDS011;67403;50.104;8.758;2023-04-25T04:50:32;8.18;;;4.22;;
28022;SDS011;67403;50.104;8.758;2023-04-25T04:52:59;9.82;;;4.95;;
28022;SDS011;67403;50.104;8.758;2023-04-25T04:55:26;9.65;;;5.32;;
28022;SDS011;67403;50.104;8.758;2023-04-25T04:57:53;10.73;;;4.32;;
28022;SDS011;67403;50.104;8.758;2023-04-25T05:00:20;6.40;;;3.97;;
28022;SDS011;67403;50.104;8.758;2023-04-25T05:02:47;10.30;;;4.30;;
28022;SDS011;67403;50.104;8.758;2023-04-25T05:05:15;11.63;;;5.00;;
28022;SDS011;67403;50.104;8.758;2023-04-25T05:07:42;8.68;;;4.28;;
28022;SDS011;67403;50.104;8.758;2023-04-25T05:10:10;12.98;;;4.50;;
28022;SDS011;67403;50.104;8.758;2023-04-25T05:12:37;10.23;;;4.70;;
28022;SDS011;67403;50.104;8.758;2023-04-25T05:15:05;11.27;;;4.57;;
28022;SDS011;67403;50.104;8.758;2023-04-25T05:17:32;9.75;;;5.28;;
28022;SDS011;67403;50.104;8.758;2023-04-25T05:19:59;7.53;;;4.20;;
28022;SDS011;67403;50.104;8.758;2023-04-25T05:22:27;12.65;;;5.25;;
28022;SDS011;67403;50.104;8.758;2023-04-25T05:24:54;14.57;;;5.60;;
28022;SDS011;67403;50.104;8.758;2023-04-25T05:27:21;8.73;;;4.13;;
28022;SDS011;67403;50.104;8.758;2023-04-25T05:29:48;9.80;;;4.35;;
28022;SDS011;67403;50.104;8.758;2023-04-25T05:32:15;12.82;;;5.07;;
28022;SDS011;67403;50.104;8.758;2023-04-25T05:34:42;8.75;;;4.18;;
28022;SDS011;67403;50.104;8.758;2023-04-25T05:37:09;9.50;;;4.05;;
28022;SDS011;67403;50.104;8.758;2023-04-25T05:39:37;11.82;;;4.30;;
28022;SDS011;67403;50.104;8.758;2023-04-25T05:42:04;13.82;;;4.97;;
28022;SDS011;67403;50.104;8.758;2023-04-25T05:44:31;9.00;;;4.03;;
28022;SDS011;67403;50.104;8.758;2023-04-25T05:46:58;11.57;;;3.90;;
28022;SDS011;67403;50.104;8.758;2023-04-25T05:49:25;7.50;;;4.25;;
28022;SDS011;67403;50.104;8.758;2023-04-25T05:51:52;9.93;;;4.90;;
28022;SDS011;67403;50.104;8.758;2023-04-25T05:54:19;12.15;;;5.25;;
28022;SDS011;67403;50.104;8.758;2023-04-25T05:56:48;11.07;;;4.93;;
28022;SDS011;67403;50.104;8.758;2023-04-25T05:59:15;15.60;;;4.43;;
28022;SDS011;67403;50.104;8.758;2023-04-25T06:01:41;8.35;;;3.70;;
28022;SDS011;67403;50.104;8.758;2023-04-25T06:04:08;8.15;;;3.80;;
28022;SDS011;67403;50.104;8.758;2023-04-25T06:06:35;10.65;;;3.97;;
28022;SDS011;67403;50.104;8.758;2023-04-25T06:09:02;6.47;;;3.35;;
28022;SDS011;67403;50.104;8.758;2023-04-25T06:11:29;5.63;;;3.00;;
28022;SDS011;67403;50.104;8.758;2023-04-25T06:13:57;6.32;;;3.10;;
28022;SDS011;67403;50.104;8.758;2023-04-25T06:16:24;7.38;;;3.08;;
28022;SDS011;67403;50.104;8.758;2023-04-25T06:18:51;6.43;;;2.83;;
28022;SDS011;67403;50.104;8.758;2023-04-25T06:21:18;5.40;;;3.13;;
28022;SDS011;67403;50.104;8.758;2023-04-25T06:23:45;17.42;;;5.25;;
28022;SDS011;67403;50.104;8.758;2023-04-25T06:26:12;14.35;;;4.85;;
28022;SDS011;67403;50.104;8.758;2023-04-25T06:28:39;6.65;;;3.45;;
28022;SDS011;67403;50.104;8.758;2023-04-25T06:31:07;10.18;;;4.13;;
28022;SDS011;67403;50.104;8.758;2023-04-25T06:33:34;6.47;;;3.13;;
28022;SDS011;67403;50.104;8.758;2023-04-25T06:36:01;7.60;;;3.65;;
28022;SDS011;67403;50.104;8.758;2023-04-25T06:38:28;7.80;;;2.90;;
28022;SDS011;67403;50.104;8.758;2023-04-25T06:40:56;7.80;;;3.50;;
28022;SDS011;67403;50.104;8.758;2023-04-25T06:43:23;7.57;;;3.20;;
28022;SDS011;67403;50.104;8.758;2023-04-25T06:45:50;10.00;;;3.70;;
28022;SDS011;67403;50.104;8.758;2023-04-25T06:48:18;9.40;;;3.78;;
28022;SDS011;67403;50.104;8.758;2023-04-25T06:50:45;6.68;;;3.10;;
28022;SDS011;67403;50.104;8.758;2023-04-25T06:53:12;7.05;;;3.25;;
28022;SDS011;67403;50.104;8.758;2023-04-25T06:55:39;15.85;;;6.28;;
28022;SDS011;67403;50.104;8.758;2023-04-25T06:58:06;5.75;;;3.67;;
28022;SDS011;67403;50.104;8.758;2023-04-25T07:00:33;11.75;;;3.40;;
28022;SDS011;67403;50.104;8.758;2023-04-25T07:03:00;6.57;;;3.85;;
28022;SDS011;67403;50.104;8.758;2023-04-25T07:05:28;4.38;;;3.05;;
28022;SDS011;67403;50.104;8.758;2023-04-25T07:07:55;8.50;;;3.72;;
28022;SDS011;67403;50.104;8.758;2023-04-25T07:10:22;5.53;;;2.83;;
28022;SDS011;67403;50.104;8.758;2023-04-25T07:12:50;4.55;;;3.03;;
28022;SDS011;67403;50.104;8.758;2023-04-25T07:15:17;9.95;;;3.42;;
28022;SDS011;67403;50.104;8.758;2023-04-25T07:17:44;7.03;;;3.42;;
28022;SDS011;67403;50.104;8.758;2023-04-25T07:20:11;8.63;;;3.60;;
28022;SDS011;67403;50.104;8.758;2023-04-25T07:22:39;6.68;;;3.00;;
28022;SDS011;67403;50.104;8.758;2023-04-25T07:25:06;8.20;;;2.60;;
28022;SDS011;67403;50.104;8.758;2023-04-25T07:27:34;7.97;;;3.13;;
28022;SDS011;67403;50.104;8.758;2023-04-25T07:30:01;9.30;;;2.90;;
28022;SDS011;67403;50.104;8.758;2023-04-25T07:32:29;3.60;;;2.75;;
28022;SDS011;67403;50.104;8.758;2023-04-25T07:34:56;7.05;;;3.10;;
28022;SDS011;67403;50.104;8.758;2023-04-25T07:37:23;5.35;;;2.88;;
28022;SDS011;67403;50.104;8.758;2023-04-25T07:39:51;9.27;;;2.97;;
28022;SDS011;67403;50.104;8.758;2023-04-25T07:42:18;7.88;;;3.38;;
28022;SDS011;67403;50.104;8.758;2023-04-25T07:44:46;9.32;;;3.00;;
28022;SDS011;67403;50.104;8.758;2023-04-25T07:47:13;7.57;;;3.08;;
28022;SDS011;67403;50.104;8.758;2023-04-25T07:49:40;4.53;;;2.92;;
28022;SDS011;67403;50.104;8.758;2023-04-25T07:52:07;6.68;;;2.50;;
28022;SDS011;67403;50.104;8.758;2023-04-25T07:54:34;6.88;;;2.97;;
28022;SDS011;67403;50.104;8.758;2023-04-25T07:57:02;6.55;;;2.67;;
28022;SDS011;67403;50.104;8.758;2023-04-25T07:59:31;4.60;;;2.88;;
28022;SDS011;67403;50.104;8.758;2023-04-25T08:01:58;7.55;;;2.95;;
28022;SDS011;67403;50.104;8.758;2023-04-25T08:04:26;5.30;;;3.03;;
28022;SDS011;67403;50.104;8.758;2023-04-25T08:06:53;4.40;;;2.05;;
28022;SDS011;67403;50.104;8.758;2023-04-25T08:09:20;9.43;;;3.58;;
28022;SDS011;67403;50.104;8.758;2023-04-25T08:11:48;5.80;;;3.38;;
28022;SDS011;67403;50.104;8.758;2023-04-25T08:14:16;4.05;;;2.38;;
28022;SDS011;67403;50.104;8.758;2023-04-25T08:16:43;6.30;;;2.20;;
28022;SDS011;67403;50.104;8.758;2023-04-25T08:19:10;6.72;;;2.90;;
28022;SDS011;67403;50.104;8.758;2023-04-25T08:21:37;4.03;;;2.50;;
28022;SDS011;67403;50.104;8.758;2023-04-25T08:24:04;4.07;;;2.22;;
28022;SDS011;67403;50.104;8.758;2023-04-25T08:26:31;7.00;;;2.28;;
28022;SDS011;67403;50.104;8.758;2023-04-25T08:28:59;4.18;;;2.13;;
28022;SDS011;67403;50.104;8.758;2023-04-25T08:31:27;4.57;;;2.40;;
28022;SDS011;67403;50.104;8.758;2023-04-25T08:33:55;4.65;;;2.17;;
28022;SDS011;67403;50.104;8.758;2023-04-25T08:36:21;4.90;;;2.35;;
28022;SDS011;67403;50.104;8.758;2023-04-25T08:38:49;4.43;;;2.47;;
28022;SDS011;67403;50.104;8.758;2023-04-25T08:41:16;6.88;;;2.90;;
28022;SDS011;67403;50.104;8.758;2023-04-25T08:43:44;6.55;;;2.22;;
28022;SDS011;67403;50.104;8.758;2023-04-25T08:46:11;3.53;;;2.40;;
28022;SDS011;67403;50.104;8.758;2023-04-25T08:48:45;6.40;;;2.80;;
28022;SDS011;67403;50.104;8.758;2023-04-25T08:51:14;5.57;;;2.83;;
28022;SDS011;67403;50.104;8.758;2023-04-25T08:53:47;5.43;;;3.40;;
28022;SDS011;67403;50.104;8.758;2023-04-25T08:56:16;4.77;;;2.73;;
28022;SDS011;67403;50.104;8.758;2023-04-25T08:58:45;6.05;;;2.63;;
28022;SDS011;67403;50.104;8.758;2023-04-25T09:01:14;5.13;;;3.17;;
28022;SDS011;67403;50.104;8.758;2023-04-25T09:03:42;8.18;;;3.45;;
28022;SDS011;67403;50.104;8.758;2023-04-25T09:06:11;7.55;;;3.20;;
28022;SDS011;67403;50.104;8.758;2023-04-25T09:08:38;12.10;;;2.95;;
28022;SDS011;67403;50.104;8.758;2023-04-25T09:11:06;5.20;;;2.25;;
28022;SDS011;67403;50.104;8.758;2023-04-25T09:13:33;7.63;;;3.30;;
28022;SDS011;67403;50.104;8.758;2023-04-25T09:16:00;5.35;;;2.85;;
28022;SDS011;67403;50.104;8.758;2023-04-25T09:18:27;3.85;;;2.88;;
28022;SDS011;67403;50.104;8.758;2023-04-25T09:20:56;8.73;;;3.03;;
28022;SDS011;67403;50.104;8.758;2023-04-25T09:23:25;4.03;;;2.80;;
28022;SDS011;67403;50.104;8.758;2023-04-25T09:25:53;5.43;;;3.40;;
28022;SDS011;67403;50.104;8.758;2023-04-25T09:28:22;9.00;;;4.07;;
28022;SDS011;67403;50.104;8.758;2023-04-25T09:30:54;4.80;;;2.97;;
28022;SDS011;67403;50.104;8.758;2023-04-25T09:33:27;6.82;;;3.40;;
28022;SDS011;67403;50.104;8.758;2023-04-25T09:35:56;5.03;;;3.55;;
28022;SDS011;67403;50.104;8.758;2023-04-25T09:38:30;6.28;;;3.22;;
28022;SDS011;67403;50.104;8.758;2023-04-25T09:40:58;6.63;;;3.83;;
28022;SDS011;67403;50.104;8.758;2023-04-25T09:43:25;5.93;;;3.70;;
28022;SDS011;67403;50.104;8.758;2023-04-25T09:45:53;5.45;;;3.60;;
28022;SDS011;67403;50.104;8.758;2023-04-25T09:48:24;7.05;;;3.70;;
28022;SDS011;67403;50.104;8.758;2023-04-25T09:51:06;5.03;;;2.58;;
28022;SDS011;67403;50.104;8.758;2023-04-25T09:53:35;5.55;;;3.13;;
28022;SDS011;67403;50.104;8.758;2023-04-25T09:56:04;8.05;;;3.83;;
28022;SDS011;67403;50.104;8.758;2023-04-25T09:58:32;6.22;;;3.20;;
28022;SDS011;67403;50.104;8.758;2023-04-25T10:01:01;7.55;;;3.47;;
28022;SDS011;67403;50.104;8.758;2023-04-25T10:03:29;8.63;;;3.90;;
28022;SDS011;67403;50.104;8.758;2023-04-25T10:05:57;6.20;;;2.85;;
28022;SDS011;67403;50.104;8.758;2023-04-25T10:08:29;6.53;;;3.40;;
28022;SDS011;67403;50.104;8.758;2023-04-25T10:11:00;10.38;;;4.78;;
28022;SDS011;67403;50.104;8.758;2023-04-25T10:13:29;9.65;;;3.22;;
28022;SDS011;67403;50.104;8.758;2023-04-25T10:15:57;6.65;;;3.05;;
28022;SDS011;67403;50.104;8.758;2023-04-25T10:18:25;7.53;;;2.90;;
28022;SDS011;67403;50.104;8.758;2023-04-25T10:20:53;5.10;;;2.80;;
28022;SDS011;67403;50.104;8.758;2023-04-25T10:23:20;5.40;;;3.05;;
28022;SDS011;67403;50.104;8.758;2023-04-25T10:25:47;7.57;;;3.42;;
28022;SDS011;67403;50.104;8.758;2023-04-25T10:28:17;5.25;;;3.05;;
28022;SDS011;67403;50.104;8.758;2023-04-25T10:30:56;5.57;;;2.92;;
28022;SDS011;67403;50.104;8.758;2023-04-25T10:33:29;6.05;;;3.17;;
28022;SDS011;67403;50.104;8.758;2023-04-25T10:36:08;8.27;;;3.58;;
28022;SDS011;67403;50.104;8.758;2023-04-25T10:38:36;6.22;;;3.50;;
28022;SDS011;67403;50.104;8.758;2023-04-25T10:41:04;6.72;;;3.75;;
28022;SDS011;67403;50.104;8.758;2023-04-25T10:43:35;6.95;;;3.70;;
28022;SDS011;67403;50.104;8.758;2023-04-25T10:46:12;8.23;;;3.65;;
28022;SDS011;67403;50.104;8.758;2023-04-25T10:48:43;8.50;;;4.15;;
28022;SDS011;67403;50.104;8.758;2023-04-25T10:51:16;5.88;;;3.92;;
28022;SDS011;67403;50.104;8.758;2023-04-25T10:53:44;7.68;;;4.03;;
28022;SDS011;67403;50.104;8.758;2023-04-25T10:56:11;7.47;;;3.90;;
28022;SDS011;67403;50.104;8.758;2023-04-25T10:58:44;5.10;;;3.65;;
28022;SDS011;67403;50.104;8.758;2023-04-25T11:01:12;4.75;;;3.30;;
28022;SDS011;67403;50.104;8.758;2023-04-25T11:03:40;9.93;;;3.33;;
28022;SDS011;67403;50.104;8.758;2023-04-25T11:06:10;8.98;;;4.32;;
28022;SDS011;67403;50.104;8.758;2023-04-25T11:08:47;5.00;;;3.05;;
28022;SDS011;67403;50.104;8.758;2023-04-25T11:11:15;4.88;;;3.10;;
28022;SDS011;67403;50.104;8.758;2023-04-25T11:13:43;5.45;;;3.05;;
28022;SDS011;67403;50.104;8.758;2023-04-25T11:16:10;5.90;;;3.00;;
28022;SDS011;67403;50.104;8.758;2023-04-25T11:18:37;11.18;;;3.05;;
28022;SDS011;67403;50.104;8.758;2023-04-25T11:21:06;5.82;;;3.25;;
28022;SDS011;67403;50.104;8.758;2023-04-25T11:23:33;10.30;;;4.15;;
28022;SDS011;67403;50.104;8.758;2023-04-25T11:26:00;5.05;;;3.20;;
28022;SDS011;67403;50.104;8.758;2023-04-25T11:28:27;8.13;;;3.58;;
28022;SDS011;67403;50.104;8.758;2023-04-25T11:30:55;6.25;;;4.00;;
28022;SDS011;67403;50.104;8.758;2023-04-25T11:33:23;5.57;;;3.30;;
28022;SDS011;67403;50.104;8.758;2023-04-25T11:35:51;7.05;;;3.53;;
28022;SDS011;67403;50.104;8.758;2023-04-25T11:38:20;6.00;;;2.50;;
28022;SDS011;67403;50.104;8.758;2023-04-25T11:40:49;5.78;;;3.22;;
28022;SDS011;67403;50.104;8.758;2023-04-25T11:43:16;5.20;;;2.60;;
28022;SDS011;67403;50.104;8.758;2023-04-25T11:45:46;4.82;;;3.33;;
28022;SDS011;67403;50.104;8.758;2023-04-25T11:48:14;8.45;;;2.97;;
28022;SDS011;67403;50.104;8.758;2023-04-25T11:50:42;8.95;;;3.60;;
28022;SDS011;67403;50.104;8.758;2023-04-25T11:53:09;12.77;;;5.05;;
28022;SDS011;67403;50.104;8.758;2023-04-25T11:55:36;6.47;;;3.45;;
28022;SDS011;67403;50.104;8.758;2023-04-25T11:58:03;4.22;;;2.65;;
28022;SDS011;67403;50.104;8.758;2023-04-25T12:00:30;9.60;;;2.55;;
28022;SDS011;67403;50.104;8.758;2023-04-25T12:02:58;6.10;;;3.13;;
28022;SDS011;67403;50.104;8.758;2023-04-25T12:05:27;8.73;;;3.03;;
28022;SDS011;67403;50.104;8.758;2023-04-25T12:07:55;7.15;;;3.30;;
28022;SDS011;67403;50.104;8.758;2023-04-25T12:10:24;4.30;;;2.88;;
28022;SDS011;67403;50.104;8.758;2023-04-25T12:12:51;6.07;;;3.28;;
28022;SDS011;67403;50.104;8.758;2023-04-25T12:15:22;4.95;;;2.72;;
28022;SDS011;67403;50.104;8.758;2023-04-25T12:17:51;6.25;;;2.78;;
28022;SDS011;67403;50.104;8.758;2023-04-25T12:20:20;10.23;;;3.08;;
28022;SDS011;67403;50.104;8.758;2023-04-25T12:22:52;8.07;;;4.35;;
28022;SDS011;67403;50.104;8.758;2023-04-25T12:25:35;7.28;;;2.80;;
28022;SDS011;67403;50.104;8.758;2023-04-25T12:28:13;9.23;;;4.10;;
28022;SDS011;67403;50.104;8.758;2023-04-25T12:30:57;4.93;;;3.42;;
28022;SDS011;67403;50.104;8.758;2023-04-25T12:33:27;6.15;;;3.20;;
28022;SDS011;67403;50.104;8.758;2023-04-25T12:35:55;9.25;;;3.28;;
28022;SDS011;67403;50.104;8.758;2023-04-25T12:38:26;7.95;;;3.70;;
28022;SDS011;67403;50.104;8.758;2023-04-25T12:40:55;12.23;;;3.67;;
28022;SDS011;67403;50.104;8.758;2023-04-25T12:43:22;8.43;;;3.53;;
28022;SDS011;67403;50.104;8.758;2023-04-25T12:45:50;8.48;;;3.25;;
28022;SDS011;67403;50.104;8.758;2023-04-25T12:48:17;6.47;;;3.05;;
28022;SDS011;67403;50.104;8.758;2023-04-25T12:50:44;8.95;;;3.88;;
28022;SDS011;67403;50.104;8.758;2023-04-25T12:53:14;7.72;;;3.42;;
28022;SDS011;67403;50.104;8.758;2023-04-25T12:55:42;4.95;;;2.85;;
28022;SDS011;67403;50.104;8.758;2023-04-25T12:58:11;10.63;;;3.38;;
28022;SDS011;67403;50.104;8.758;2023-04-25T13:00:38;8.05;;;2.83;;
28022;SDS011;67403;50.104;8.758;2023-04-25T13:03:05;6.05;;;3.28;;
28022;SDS011;67403;50.104;8.758;2023-04-25T13:05:32;6.70;;;3.28;;
28022;SDS011;67403;50.104;8.758;2023-04-25T13:07:59;9.02;;;4.72;;
28022;SDS011;67403;50.104;8.758;2023-04-25T13:10:25;6.75;;;3.30;;
28022;SDS011;67403;50.104;8.758;2023-04-25T13:12:54;7.60;;;4.30;;
28022;SDS011;67403;50.104;8.758;2023-04-25T13:15:20;9.70;;;3.55;;
28022;SDS011;67403;50.104;8.758;2023-04-25T13:17:48;7.22;;;3.50;;
28022;SDS011;67403;50.104;8.758;2023-04-25T13:20:15;12.18;;;3.67;;
28022;SDS011;67403;50.104;8.758;2023-04-25T13:22:44;7.80;;;3.60;;
28022;SDS011;67403;50.104;8.758;2023-04-25T13:25:11;3.80;;;2.90;;
28022;SDS011;67403;50.104;8.758;2023-04-25T13:27:38;9.38;;;3.42;;
28022;SDS011;67403;50.104;8.758;2023-04-25T13:30:07;4.32;;;3.28;;
28022;SDS011;67403;50.104;8.758;2023-04-25T13:32:34;4.88;;;2.78;;
28022;SDS011;67403;50.104;8.758;2023-04-25T13:35:02;7.93;;;3.45;;
28022;SDS011;67403;50.104;8.758;2023-04-25T13:37:30;7.43;;;3.10;;
28022;SDS011;67403;50.104;8.758;2023-04-25T13:39:58;9.18;;;2.97;;
28022;SDS011;67403;50.104;8.758;2023-04-25T13:42:26;4.40;;;2.88;;
28022;SDS011;67403;50.104;8.758;2023-04-25T13:44:53;5.57;;;3.13;;
28022;SDS011;67403;50.104;8.758;2023-04-25T13:47:21;7.20;;;3.60;;
28022;SDS011;67403;50.104;8.758;2023-04-25T13:49:49;8.18;;;3.45;;
28022;SDS011;67403;50.104;8.758;2023-04-25T13:52:16;10.63;;;4.13;;
28022;SDS011;67403;50.104;8.758;2023-04-25T13:54:42;5.07;;;3.83;;
28022;SDS011;67403;50.104;8.758;2023-04-25T13:57:09;7.60;;;3.35;;
28022;SDS011;67403;50.104;8.758;2023-04-25T13:59:37;8.25;;;3.15;;
28022;SDS011;67403;50.104;8.758;2023-04-25T14:02:04;5.65;;;3.20;;
28022;SDS011;67403;50.104;8.758;2023-04-25T14:04:32;5.72;;;3.15;;
28022;SDS011;67403;50.104;8.758;2023-04-25T14:06:59;4.43;;;2.75;;
28022;SDS011;67403;50.104;8.758;2023-04-25T14:09:27;6.38;;;3.20;;
28022;SDS011;67403;50.104;8.758;2023-04-25T14:11:54;10.02;;;3.50;;
28022;SDS011;67403;50.104;8.758;2023-04-25T14:14:21;8.10;;;3.33;;
28022;SDS011;67403;50.104;8.758;2023-04-25T14:16:50;10.02;;;4.13;;
28022;SDS011;67403;50.104;8.758;2023-04-25T14:19:19;5.22;;;3.03;;
28022;SDS011;67403;50.104;8.758;2023-04-25T14:21:48;6.07;;;3.33;;
28022;SDS011;67403;50.104;8.758;2023-04-25T14:24:14;4.60;;;2.92;;
28022;SDS011;67403;50.104;8.758;2023-04-25T14:26:42;6.05;;;3.30;;
28022;SDS011;67403;50.104;8.758;2023-04-25T14:29:09;7.63;;;2.70;;
28022;SDS011;67403;50.104;8.758;2023-04-25T14:31:38;9.45;;;3.28;;
28022;SDS011;67403;50.104;8.758;2023-04-25T14:34:06;8.40;;;2.65;;
28022;SDS011;67403;50.104;8.758;2023-04-25T14:36:33;7.35;;;2.70;;
28022;SDS011;67403;50.104;8.758;2023-04-25T14:39:02;4.50;;;2.83;;
28022;SDS011;67403;50.104;8.758;2023-04-25T14:41:30;3.53;;;2.50;;
28022;SDS011;67403;50.104;8.758;2023-04-25T14:43:57;4.63;;;2.58;;
28022;SDS011;67403;50.104;8.758;2023-04-25T14:46:23;5.00;;;2.92;;